sensor_id;sensor_type;location;lat;lon;timestamp;temperature;humidity
1534;DHT22;760;48.822;9.304;2023-09-19T04:06:23;17.70;99.90
1534;DHT22;760;48.822;9.304;2023-09-19T04:08:49;17.80;99.90
1534;DHT22;760;48.822;9.304;2023-09-19T04:11:14;17.80;99.90
1534;DHT22;760;48.822;9.304;2023-09-19T04:13:40;17.80;99.90
1534;DHT22;760;48.822;9.304;2023-09-19T04:16:06;17.80;99.90
1534;DHT22;760;48.822;9.304;2023-09-19T04:18:34;17.80;99.90
1534;DHT22;760;48.822;9.304;2023-09-19T04:21:03;17.90;99.90
1534;DHT22;760;48.822;9.304;2023-09-19T04:23:31;17.80;99.90
1534;DHT22;760;48.822;9.304;2023-09-19T04:25:57;17.80;99.90
1534;DHT22;760;48.822;9.304;2023-09-19T04:28:23;17.70;99.90
1534;DHT22;760;48.822;9.304;2023-09-19T04:30:49;17.70;99.90
1534;DHT22;760;48.822;9.304;2023-09-19T04:33:15;17.60;99.90
1534;DHT22;760;48.822;9.304;2023-09-19T04:35:41;17.50;99.90
1534;DHT22;760;48.822;9.304;2023-09-19T04:38:08;17.50;99.90
1534;DHT22;760;48.822;9.304;2023-09-19T04:40:34;17.40;99.90
1534;DHT22;760;48.822;9.304;2023-09-19T04:43:00;17.30;99.90
1534;DHT22;760;48.822;9.304;2023-09-19T04:45:27;17.30;99.90
1534;DHT22;760;48.822;9.304;2023-09-19T04:47:53;17.20;99.90
1534;DHT22;760;48.822;9.304;2023-09-19T04:50:20;17.20;99.90
1534;DHT22;760;48.822;9.304;2023-09-19T04:52:49;17.20;99.90
1534;DHT22;760;48.822;9.304;2023-09-19T04:55:17;17.20;99.90
1534;DHT22;760;48.822;9.304;2023-09-19T04:57:48;17.20;99.90
1534;DHT22;760;48.822;9.304;2023-09-19T05:00:18;17.20;99.90
1534;DHT22;760;48.822;9.304;2023-09-19T05:02:45;17.20;99.90
1534;DHT22;760;48.822;9.304;2023-09-19T05:05:11;17.20;99.90
1534;DHT22;760;48.822;9.304;2023-09-19T05:07:39;17.30;99.90
1534;DHT22;760;48.822;9.304;2023-09-19T05:10:05;17.30;99.90
1534;DHT22;760;48.822;9.304;2023-09-19T05:12:35;17.30;99.90
1534;DHT22;760;48.822;9.304;2023-09-19T05:15:02;17.30;99.90
1534;DHT22;760;48.822;9.304;2023-09-19T05:17:28;17.30;99.90
1534;DHT22;760;48.822;9.304;2023-09-19T05:19:54;17.30;99.90
1534;DHT22;760;48.822;9.304;2023-09-19T05:22:20;17.20;99.90
1534;DHT22;760;48.822;9.304;2023-09-19T05:24:45;17.20;99.90
1534;DHT22;760;48.822;9.304;2023-09-19T05:27:14;17.20;99.90
1534;DHT22;760;48.822;9.304;2023-09-19T05:29:43;17.20;99.90
1534;DHT22;760;48.822;9.304;2023-09-19T05:32:10;17.10;99.90
1534;DHT22;760;48.822;9.304;2023-09-19T05:34:36;17.10;99.90
1534;DHT22;760;48.822;9.304;2023-09-19T05:37:02;17.10;99.90
1534;DHT22;760;48.822;9.304;2023-09-19T05:39:27;17.10;99.90
1534;DHT22;760;48.822;9.304;2023-09-19T05:41:53;17.10;99.90
1534;DHT22;760;48.822;9.304;2023-09-19T05:44:18;17.10;99.90
1534;DHT22;760;48.822;9.304;2023-09-19T05:46:44;17.10;99.90
1534;DHT22;760;48.822;9.304;2023-09-19T05:49:13;17.10;99.90
1534;DHT22;760;48.822;9.304;2023-09-19T05:51:39;17.10;99.90
1534;DHT22;760;48.822;9.304;2023-09-19T05:54:04;17.10;99.90
1534;DHT22;760;48.822;9.304;2023-09-19T05:56:30;17.10;99.90
1534;DHT22;760;48.822;9.304;2023-09-19T05:58:56;17.10;99.90
1534;DHT22;760;48.822;9.304;2023-09-19T06:01:22;17.00;99.90
1534;DHT22;760;48.822;9.304;2023-09-19T06:03:48;17.00;99.90
1534;DHT22;760;48.822;9.304;2023-09-19T06:06:13;16.90;99.90
1534;DHT22;760;48.822;9.304;2023-09-19T06:08:39;16.90;99.90
1534;DHT22;760;48.822;9.304;2023-09-19T06:11:05;16.80;99.90
1534;DHT22;760;48.822;9.304;2023-09-19T06:13:34;16.70;99.90
1534;DHT22;760;48.822;9.304;2023-09-19T06:16:00;16.60;99.90
1534;DHT22;760;48.822;9.304;2023-09-19T06:18:30;16.50;99.90
1534;DHT22;760;48.822;9.304;2023-09-19T06:20:59;16.30;99.90
1534;DHT22;760;48.822;9.304;2023-09-19T06:23:25;16.10;99.90
1534;DHT22;760;48.822;9.304;2023-09-19T06:25:52;15.90;99.90
1534;DHT22;760;48.822;9.304;2023-09-19T06:28:19;15.80;99.90
1534;DHT22;760;48.822;9.304;2023-09-19T06:30:49;15.80;99.90
1534;DHT22;760;48.822;9.304;2023-09-19T06:33:15;15.80;99.90
1534;DHT22;760;48.822;9.304;2023-09-19T06:35:40;15.90;99.90
1534;DHT22;760;48.822;9.304;2023-09-19T06:38:07;15.90;99.90
1534;DHT22;760;48.822;9.304;2023-09-19T06:40:34;16.00;99.90
1534;DHT22;760;48.822;9.304;2023-09-19T06:43:00;16.00;99.90
1534;DHT22;760;48.822;9.304;2023-09-19T06:45:27;16.10;99.90
1534;DHT22;760;48.822;9.304;2023-09-19T06:47:53;16.20;99.90
1534;DHT22;760;48.822;9.304;2023-09-19T06:50:23;16.40;99.90
1534;DHT22;760;48.822;9.304;2023-09-19T06:52:50;16.50;99.90
1534;DHT22;760;48.822;9.304;2023-09-19T06:55:17;16.60;99.90
1534;DHT22;760;48.822;9.304;2023-09-19T06:57:44;16.80;99.90
1534;DHT22;760;48.822;9.304;2023-09-19T07:00:11;17.00;99.90
1534;DHT22;760;48.822;9.304;2023-09-19T07:03:00;17.10;99.90
1534;DHT22;760;48.822;9.304;2023-09-19T07:05:28;17.20;99.90
1534;DHT22;760;48.822;9.304;2023-09-19T07:07:55;17.40;99.90
1534;DHT22;760;48.822;9.304;2023-09-19T07:10:30;17.50;99.90
1534;DHT22;760;48.822;9.304;2023-09-19T07:12:59;17.70;99.90
1534;DHT22;760;48.822;9.304;2023-09-19T07:15:26;17.90;99.90
1534;DHT22;760;48.822;9.304;2023-09-19T07:17:53;18.20;99.90
1534;DHT22;760;48.822;9.304;2023-09-19T07:20:19;18.40;99.90
1534;DHT22;760;48.822;9.304;2023-09-19T07:22:45;18.70;99.90
1534;DHT22;760;48.822;9.304;2023-09-19T07:25:11;19.00;99.90
1534;DHT22;760;48.822;9.304;2023-09-19T07:27:36;19.20;99.90
1534;DHT22;760;48.822;9.304;2023-09-19T07:30:02;19.40;99.90
1534;DHT22;760;48.822;9.304;2023-09-19T07:32:27;19.50;99.90
1534;DHT22;760;48.822;9.304;2023-09-19T07:34:53;19.60;99.90
1534;DHT22;760;48.822;9.304;2023-09-19T07:37:23;19.70;99.90
1534;DHT22;760;48.822;9.304;2023-09-19T07:39:51;19.80;99.90
1534;DHT22;760;48.822;9.304;2023-09-19T07:42:16;19.90;99.90
1534;DHT22;760;48.822;9.304;2023-09-19T07:44:44;20.00;99.90
1534;DHT22;760;48.822;9.304;2023-09-19T07:47:14;20.20;99.90
1534;DHT22;760;48.822;9.304;2023-09-19T07:49:39;20.40;99.90
1534;DHT22;760;48.822;9.304;2023-09-19T07:52:06;20.60;99.90
1534;DHT22;760;48.822;9.304;2023-09-19T07:54:32;21.00;99.90
1534;DHT22;760;48.822;9.304;2023-09-19T07:57:01;21.50;99.90
1534;DHT22;760;48.822;9.304;2023-09-19T07:59:27;22.10;99.90
1534;DHT22;760;48.822;9.304;2023-09-19T08:01:53;22.70;99.90
1534;DHT22;760;48.822;9.304;2023-09-19T08:04:19;23.30;99.90
1534;DHT22;760;48.822;9.304;2023-09-19T08:06:45;23.80;99.90
1534;DHT22;760;48.822;9.304;2023-09-19T08:09:10;24.30;99.90
1534;DHT22;760;48.822;9.304;2023-09-19T08:11:37;24.60;99.90
1534;DHT22;760;48.822;9.304;2023-09-19T08:14:04;24.80;99.90
1534;DHT22;760;48.822;9.304;2023-09-19T08:16:31;25.10;99.90
1534;DHT22;760;48.822;9.304;2023-09-19T08:18:56;25.50;99.90
1534;DHT22;760;48.822;9.304;2023-09-19T08:21:22;26.00;99.90
1534;DHT22;760;48.822;9.304;2023-09-19T08:23:50;26.40;99.70
1534;DHT22;760;48.822;9.304;2023-09-19T08:26:15;27.00;99.40
1534;DHT22;760;48.822;9.304;2023-09-19T08:28:42;27.50;98.50
1534;DHT22;760;48.822;9.304;2023-09-19T08:31:08;28.10;97.40
1534;DHT22;760;48.822;9.304;2023-09-19T08:33:35;28.40;95.70
1534;DHT22;760;48.822;9.304;2023-09-19T08:36:04;28.70;94.30
1534;DHT22;760;48.822;9.304;2023-09-19T08:38:31;28.80;93.90
1534;DHT22;760;48.822;9.304;2023-09-19T08:40:59;29.00;94.00
1534;DHT22;760;48.822;9.304;2023-09-19T08:43:25;29.10;93.40
1534;DHT22;760;48.822;9.304;2023-09-19T08:45:54;29.30;93.00
1534;DHT22;760;48.822;9.304;2023-09-19T08:48:25;29.20;91.80
1534;DHT22;760;48.822;9.304;2023-09-19T08:51:06;29.20;92.10
1534;DHT22;760;48.822;9.304;2023-09-19T08:53:41;29.10;92.20
1534;DHT22;760;48.822;9.304;2023-09-19T08:56:10;28.80;91.20
1534;DHT22;760;48.822;9.304;2023-09-19T08:58:49;28.40;92.10
1534;DHT22;760;48.822;9.304;2023-09-19T09:01:17;28.10;91.90
1534;DHT22;760;48.822;9.304;2023-09-19T09:03:48;28.00;92.40
1534;DHT22;760;48.822;9.304;2023-09-19T09:06:14;27.90;92.50
1534;DHT22;760;48.822;9.304;2023-09-19T09:08:41;28.20;92.90
1534;DHT22;760;48.822;9.304;2023-09-19T09:11:07;28.60;92.20
1534;DHT22;760;48.822;9.304;2023-09-19T09:13:35;29.00;92.10
1534;DHT22;760;48.822;9.304;2023-09-19T09:16:01;29.30;90.80
1534;DHT22;760;48.822;9.304;2023-09-19T09:18:28;29.60;90.30
1534;DHT22;760;48.822;9.304;2023-09-19T09:20:55;30.00;90.40
1534;DHT22;760;48.822;9.304;2023-09-19T09:23:21;30.50;89.50
1534;DHT22;760;48.822;9.304;2023-09-19T09:25:54;31.00;86.20
1534;DHT22;760;48.822;9.304;2023-09-19T09:28:30;31.10;80.80
1534;DHT22;760;48.822;9.304;2023-09-19T09:30:57;31.00;81.50
1534;DHT22;760;48.822;9.304;2023-09-19T09:33:34;30.60;79.70
1534;DHT22;760;48.822;9.304;2023-09-19T09:36:01;30.30;80.70
1534;DHT22;760;48.822;9.304;2023-09-19T09:38:44;30.10;82.50
1534;DHT22;760;48.822;9.304;2023-09-19T09:41:11;29.70;82.10
1534;DHT22;760;48.822;9.304;2023-09-19T09:43:41;29.20;83.00
1534;DHT22;760;48.822;9.304;2023-09-19T09:46:15;29.10;85.70
1534;DHT22;760;48.822;9.304;2023-09-19T09:51:43;30.00;84.60
1534;DHT22;760;48.822;9.304;2023-09-19T09:54:18;30.70;81.70
1534;DHT22;760;48.822;9.304;2023-09-19T09:56:57;31.00;79.80
1534;DHT22;760;48.822;9.304;2023-09-19T10:02:24;31.30;77.50
1534;DHT22;760;48.822;9.304;2023-09-19T10:04:57;30.90;77.60
1534;DHT22;760;48.822;9.304;2023-09-19T10:07:41;30.50;76.70
1534;DHT22;760;48.822;9.304;2023-09-19T10:10:15;29.90;80.10
1534;DHT22;760;48.822;9.304;2023-09-19T10:12:48;29.30;79.60
1534;DHT22;760;48.822;9.304;2023-09-19T10:15:15;28.90;80.10
1534;DHT22;760;48.822;9.304;2023-09-19T10:17:43;28.40;80.20
1534;DHT22;760;48.822;9.304;2023-09-19T10:20:14;27.80;82.60
1534;DHT22;760;48.822;9.304;2023-09-19T10:23:01;27.00;84.20
1534;DHT22;760;48.822;9.304;2023-09-19T10:25:29;26.60;85.80
1534;DHT22;760;48.822;9.304;2023-09-19T10:27:57;26.10;86.90
1534;DHT22;760;48.822;9.304;2023-09-19T10:30:25;25.70;89.10
1534;DHT22;760;48.822;9.304;2023-09-19T10:33:03;25.70;88.80
1534;DHT22;760;48.822;9.304;2023-09-19T10:35:29;25.80;88.70
1534;DHT22;760;48.822;9.304;2023-09-19T10:37:59;26.00;89.00
1534;DHT22;760;48.822;9.304;2023-09-19T10:40:26;26.00;88.20
1534;DHT22;760;48.822;9.304;2023-09-19T10:43:03;26.00;88.00
1534;DHT22;760;48.822;9.304;2023-09-19T10:45:31;26.30;88.40
1534;DHT22;760;48.822;9.304;2023-09-19T10:47:58;26.60;85.10
1534;DHT22;760;48.822;9.304;2023-09-19T10:50:24;27.00;83.70
1534;DHT22;760;48.822;9.304;2023-09-19T10:52:52;27.20;82.50
1534;DHT22;760;48.822;9.304;2023-09-19T10:55:28;27.30;81.80
1534;DHT22;760;48.822;9.304;2023-09-19T10:57:54;27.40;81.90
1534;DHT22;760;48.822;9.304;2023-09-19T11:00:22;27.40;81.30
1534;DHT22;760;48.822;9.304;2023-09-19T11:03:16;27.50;80.10
1534;DHT22;760;48.822;9.304;2023-09-19T11:06:09;27.50;80.70
1534;DHT22;760;48.822;9.304;2023-09-19T11:09:03;27.10;79.90
1534;DHT22;760;48.822;9.304;2023-09-19T11:30:33;24.70;86.00
1534;DHT22;760;48.822;9.304;2023-09-19T11:33:21;24.50;85.90
1534;DHT22;760;48.822;9.304;2023-09-19T11:46:53;23.80;88.70
1534;DHT22;760;48.822;9.304;2023-09-19T11:49:31;23.80;88.00
1534;DHT22;760;48.822;9.304;2023-09-19T11:51:58;23.80;87.20
1534;DHT22;760;48.822;9.304;2023-09-19T11:54:27;23.90;87.30
1534;DHT22;760;48.822;9.304;2023-09-19T11:56:58;23.80;85.20
1534;DHT22;760;48.822;9.304;2023-09-19T11:59:28;23.80;85.70
1534;DHT22;760;48.822;9.304;2023-09-19T12:02:01;23.70;85.80
1534;DHT22;760;48.822;9.304;2023-09-19T12:04:42;23.70;85.90
1534;DHT22;760;48.822;9.304;2023-09-19T12:07:11;23.70;86.40
1534;DHT22;760;48.822;9.304;2023-09-19T12:09:50;23.70;86.00
1534;DHT22;760;48.822;9.304;2023-09-19T12:12:27;23.70;85.90
1534;DHT22;760;48.822;9.304;2023-09-19T12:14:54;23.70;86.50
1534;DHT22;760;48.822;9.304;2023-09-19T12:17:22;23.70;86.50
1534;DHT22;760;48.822;9.304;2023-09-19T12:19:53;23.70;86.90
1534;DHT22;760;48.822;9.304;2023-09-19T12:22:19;23.70;87.60
1534;DHT22;760;48.822;9.304;2023-09-19T12:24:46;23.80;86.50
1534;DHT22;760;48.822;9.304;2023-09-19T12:27:13;23.80;85.80
1534;DHT22;760;48.822;9.304;2023-09-19T12:29:46;23.70;86.20
1534;DHT22;760;48.822;9.304;2023-09-19T12:32:14;23.70;87.00
1534;DHT22;760;48.822;9.304;2023-09-19T12:34:42;23.60;88.00
1534;DHT22;760;48.822;9.304;2023-09-19T12:37:16;23.50;87.90
1534;DHT22;760;48.822;9.304;2023-09-19T12:39:51;23.50;88.90
1534;DHT22;760;48.822;9.304;2023-09-19T12:42:22;23.50;88.50
1534;DHT22;760;48.822;9.304;2023-09-19T12:44:51;23.50;88.50
1534;DHT22;760;48.822;9.304;2023-09-19T12:47:22;23.50;88.80
1534;DHT22;760;48.822;9.304;2023-09-19T12:50:14;23.50;89.40
1534;DHT22;760;48.822;9.304;2023-09-19T12:52:50;23.50;89.50
1534;DHT22;760;48.822;9.304;2023-09-19T12:55:24;23.60;89.10
1534;DHT22;760;48.822;9.304;2023-09-19T12:57:59;23.60;89.10
1534;DHT22;760;48.822;9.304;2023-09-19T13:00:43;23.70;89.60
1534;DHT22;760;48.822;9.304;2023-09-19T13:03:26;23.70;90.30
1534;DHT22;760;48.822;9.304;2023-09-19T13:05:55;23.80;89.40
1534;DHT22;760;48.822;9.304;2023-09-19T13:08:29;23.80;89.10
1534;DHT22;760;48.822;9.304;2023-09-19T13:16:07;24.20;88.70
1534;DHT22;760;48.822;9.304;2023-09-19T13:18:45;24.20;87.50
1534;DHT22;760;48.822;9.304;2023-09-19T13:21:13;24.20;86.80
1534;DHT22;760;48.822;9.304;2023-09-19T13:24:17;24.10;86.50
1534;DHT22;760;48.822;9.304;2023-09-19T13:26:43;23.90;88.20
1534;DHT22;760;48.822;9.304;2023-09-19T13:29:08;23.90;88.60
1534;DHT22;760;48.822;9.304;2023-09-19T13:31:34;23.80;88.50
1534;DHT22;760;48.822;9.304;2023-09-19T13:33:59;23.80;88.30
1534;DHT22;760;48.822;9.304;2023-09-19T13:36:25;23.80;89.30
1534;DHT22;760;48.822;9.304;2023-09-19T13:38:50;23.70;89.50
1534;DHT22;760;48.822;9.304;2023-09-19T13:41:18;23.70;88.90
1534;DHT22;760;48.822;9.304;2023-09-19T13:43:44;23.70;89.20
1534;DHT22;760;48.822;9.304;2023-09-19T13:46:13;23.70;90.00
1534;DHT22;760;48.822;9.304;2023-09-19T13:48:41;23.80;90.60
1534;DHT22;760;48.822;9.304;2023-09-19T13:51:06;23.90;90.20
1534;DHT22;760;48.822;9.304;2023-09-19T13:53:32;24.00;90.30
1534;DHT22;760;48.822;9.304;2023-09-19T13:55:58;24.00;89.70
1534;DHT22;760;48.822;9.304;2023-09-19T13:58:23;23.90;88.80
1534;DHT22;760;48.822;9.304;2023-09-19T14:00:49;23.90;88.30
1534;DHT22;760;48.822;9.304;2023-09-19T14:03:16;24.00;89.10
1534;DHT22;760;48.822;9.304;2023-09-19T14:05:41;24.00;88.70
1534;DHT22;760;48.822;9.304;2023-09-19T14:08:08;24.00;90.00
1534;DHT22;760;48.822;9.304;2023-09-19T14:10:33;23.90;90.00
1534;DHT22;760;48.822;9.304;2023-09-19T14:13:00;23.80;89.50
1534;DHT22;760;48.822;9.304;2023-09-19T14:15:27;23.70;89.20
1534;DHT22;760;48.822;9.304;2023-09-19T14:17:57;23.60;89.90
1534;DHT22;760;48.822;9.304;2023-09-19T14:20:23;23.40;90.00
1534;DHT22;760;48.822;9.304;2023-09-19T14:22:49;23.40;90.30
1534;DHT22;760;48.822;9.304;2023-09-19T14:25:15;23.30;90.70
1534;DHT22;760;48.822;9.304;2023-09-19T14:27:40;23.40;90.60
1534;DHT22;760;48.822;9.304;2023-09-19T14:30:07;23.40;90.20
1534;DHT22;760;48.822;9.304;2023-09-19T14:32:33;23.40;90.00
1534;DHT22;760;48.822;9.304;2023-09-19T14:34:59;23.40;89.10
1534;DHT22;760;48.822;9.304;2023-09-19T14:37:24;23.40;89.40
1534;DHT22;760;48.822;9.304;2023-09-19T14:39:50;23.40;90.00
1534;DHT22;760;48.822;9.304;2023-09-19T14:42:15;23.30;88.40
1534;DHT22;760;48.822;9.304;2023-09-19T14:44:43;23.20;88.70
1534;DHT22;760;48.822;9.304;2023-09-19T14:47:09;23.10;89.20
1534;DHT22;760;48.822;9.304;2023-09-19T14:49:38;23.10;89.90
1534;DHT22;760;48.822;9.304;2023-09-19T14:52:04;23.00;90.70
1534;DHT22;760;48.822;9.304;2023-09-19T14:54:30;23.00;90.70
1534;DHT22;760;48.822;9.304;2023-09-19T14:56:56;22.90;90.20
1534;DHT22;760;48.822;9.304;2023-09-19T14:59:32;23.00;88.80
1534;DHT22;760;48.822;9.304;2023-09-19T15:01:59;23.00;90.00
1534;DHT22;760;48.822;9.304;2023-09-19T15:04:25;23.10;90.00
1534;DHT22;760;48.822;9.304;2023-09-19T15:06:51;23.10;90.20
1534;DHT22;760;48.822;9.304;2023-09-19T15:09:20;23.20;90.20
1534;DHT22;760;48.822;9.304;2023-09-19T15:11:53;23.30;90.40
1534;DHT22;760;48.822;9.304;2023-09-19T15:14:20;23.30;90.80
1534;DHT22;760;48.822;9.304;2023-09-19T15:16:46;23.30;90.10
1534;DHT22;760;48.822;9.304;2023-09-19T15:19:13;23.20;89.40
1534;DHT22;760;48.822;9.304;2023-09-19T15:21:39;23.20;90.20
1534;DHT22;760;48.822;9.304;2023-09-19T15:24:05;23.10;90.40
1534;DHT22;760;48.822;9.304;2023-09-19T15:26:35;23.10;90.30
1534;DHT22;760;48.822;9.304;2023-09-19T15:29:07;23.00;90.20
1534;DHT22;760;48.822;9.304;2023-09-19T15:31:33;22.90;90.00
1534;DHT22;760;48.822;9.304;2023-09-19T15:33:58;22.90;89.40
1534;DHT22;760;48.822;9.304;2023-09-19T15:36:24;22.80;88.80
1534;DHT22;760;48.822;9.304;2023-09-19T15:39:08;22.80;88.70
1534;DHT22;760;48.822;9.304;2023-09-19T15:41:41;22.80;88.70
1534;DHT22;760;48.822;9.304;2023-09-19T15:44:15;22.80;89.40
1534;DHT22;760;48.822;9.304;2023-09-19T15:46:41;22.70;90.10
1534;DHT22;760;48.822;9.304;2023-09-19T15:49:07;22.70;89.50
1534;DHT22;760;48.822;9.304;2023-09-19T15:51:34;22.70;89.10
1534;DHT22;760;48.822;9.304;2023-09-19T15:54:01;22.70;89.40
1534;DHT22;760;48.822;9.304;2023-09-19T15:56:33;22.70;89.30
1534;DHT22;760;48.822;9.304;2023-09-19T15:59:00;22.70;90.20
1534;DHT22;760;48.822;9.304;2023-09-19T16:01:26;22.60;90.10
1534;DHT22;760;48.822;9.304;2023-09-19T16:03:53;22.50;90.20
1534;DHT22;760;48.822;9.304;2023-09-19T16:06:22;22.50;90.00
1534;DHT22;760;48.822;9.304;2023-09-19T16:08:53;22.30;90.20
1534;DHT22;760;48.822;9.304;2023-09-19T16:11:20;22.30;90.20
1534;DHT22;760;48.822;9.304;2023-09-19T16:13:48;22.20;90.60
1534;DHT22;760;48.822;9.304;2023-09-19T16:16:15;22.20;90.60
1534;DHT22;760;48.822;9.304;2023-09-19T16:18:49;22.10;90.80
1534;DHT22;760;48.822;9.304;2023-09-19T16:21:16;22.10;91.50
1534;DHT22;760;48.822;9.304;2023-09-19T16:23:50;22.00;91.40
1534;DHT22;760;48.822;9.304;2023-09-19T16:26:17;22.00;91.30
1534;DHT22;760;48.822;9.304;2023-09-19T16:28:47;21.90;91.30
1534;DHT22;760;48.822;9.304;2023-09-19T16:31:17;21.90;91.60
1534;DHT22;760;48.822;9.304;2023-09-19T16:33:45;21.80;91.60
1534;DHT22;760;48.822;9.304;2023-09-19T16:36:12;21.80;91.80
1534;DHT22;760;48.822;9.304;2023-09-19T16:38:39;21.80;92.00
1534;DHT22;760;48.822;9.304;2023-09-19T16:41:06;21.70;92.00
1534;DHT22;760;48.822;9.304;2023-09-19T16:43:32;21.60;92.10
1534;DHT22;760;48.822;9.304;2023-09-19T16:48:26;21.60;92.40
1534;DHT22;760;48.822;9.304;2023-09-19T16:50:53;21.60;92.50
1534;DHT22;760;48.822;9.304;2023-09-19T16:53:19;21.50;92.60
1534;DHT22;760;48.822;9.304;2023-09-19T16:55:46;21.50;92.50
1534;DHT22;760;48.822;9.304;2023-09-19T16:58:15;21.40;92.70
1534;DHT22;760;48.822;9.304;2023-09-19T17:00:42;21.40;93.00
1534;DHT22;760;48.822;9.304;2023-09-19T17:03:13;21.30;92.90
1534;DHT22;760;48.822;9.304;2023-09-19T17:05:39;21.20;92.70
1534;DHT22;760;48.822;9.304;2023-09-19T17:08:09;21.20;93.10
1534;DHT22;760;48.822;9.304;2023-09-19T17:10:35;21.20;93.30
1534;DHT22;760;48.822;9.304;2023-09-19T17:13:02;21.20;93.50
1534;DHT22;760;48.822;9.304;2023-09-19T17:15:31;21.10;93.40
1534;DHT22;760;48.822;9.304;2023-09-19T17:17:57;21.10;93.60
1534;DHT22;760;48.822;9.304;2023-09-19T17:20:23;21.00;93.70
1534;DHT22;760;48.822;9.304;2023-09-19T17:22:49;20.90;93.80
1534;DHT22;760;48.822;9.304;2023-09-19T17:25:16;20.90;94.10
1534;DHT22;760;48.822;9.304;2023-09-19T17:27:42;20.80;94.20
1534;DHT22;760;48.822;9.304;2023-09-19T17:30:09;20.70;94.60
1534;DHT22;760;48.822;9.304;2023-09-19T17:32:45;20.70;94.80
1534;DHT22;760;48.822;9.304;2023-09-19T17:35:12;20.60;95.30
1534;DHT22;760;48.822;9.304;2023-09-19T17:37:39;20.50;95.50
1534;DHT22;760;48.822;9.304;2023-09-19T17:40:07;20.40;95.70
1534;DHT22;760;48.822;9.304;2023-09-19T17:42:37;20.30;95.70
1534;DHT22;760;48.822;9.304;2023-09-19T17:45:03;20.20;95.80
1534;DHT22;760;48.822;9.304;2023-09-19T17:47:29;20.10;96.30
1534;DHT22;760;48.822;9.304;2023-09-19T17:49:55;20.10;96.60
1534;DHT22;760;48.822;9.304;2023-09-19T17:52:22;20.00;96.70
1534;DHT22;760;48.822;9.304;2023-09-19T17:54:47;20.00;96.80
1534;DHT22;760;48.822;9.304;2023-09-19T17:57:17;19.80;96.80
1534;DHT22;760;48.822;9.304;2023-09-19T17:59:44;19.70;97.00
1534;DHT22;760;48.822;9.304;2023-09-19T18:02:10;19.70;97.20
1534;DHT22;760;48.822;9.304;2023-09-19T18:04:35;19.60;97.40
1534;DHT22;760;48.822;9.304;2023-09-19T18:07:01;19.50;97.50
1534;DHT22;760;48.822;9.304;2023-09-19T18:09:27;19.40;97.50
1534;DHT22;760;48.822;9.304;2023-09-19T18:11:53;19.40;97.90
1534;DHT22;760;48.822;9.304;2023-09-19T18:14:18;19.30;98.10
1534;DHT22;760;48.822;9.304;2023-09-19T18:16:44;19.30;98.30
1534;DHT22;760;48.822;9.304;2023-09-19T18:19:10;19.20;98.70
1534;DHT22;760;48.822;9.304;2023-09-19T18:21:35;19.20;99.00
1534;DHT22;760;48.822;9.304;2023-09-19T18:24:02;19.10;98.80
1534;DHT22;760;48.822;9.304;2023-09-19T18:26:34;19.10;99.10
1534;DHT22;760;48.822;9.304;2023-09-19T18:29:03;19.00;99.20
1534;DHT22;760;48.822;9.304;2023-09-19T18:31:30;19.00;99.50
1534;DHT22;760;48.822;9.304;2023-09-19T18:33:59;18.90;99.70
1534;DHT22;760;48.822;9.304;2023-09-19T18:36:26;18.90;99.90
1534;DHT22;760;48.822;9.304;2023-09-19T18:38:55;18.80;99.90
1534;DHT22;760;48.822;9.304;2023-09-19T18:41:22;18.80;99.90
1534;DHT22;760;48.822;9.304;2023-09-19T18:43:48;18.80;99.90
1534;DHT22;760;48.822;9.304;2023-09-19T18:46:15;18.70;99.90
1534;DHT22;760;48.822;9.304;2023-09-19T18:48:43;18.70;99.90
1534;DHT22;760;48.822;9.304;2023-09-19T18:51:14;18.70;99.90
1534;DHT22;760;48.822;9.304;2023-09-19T18:53:41;18.60;99.90
1534;DHT22;760;48.822;9.304;2023-09-19T18:56:10;18.60;99.90
1534;DHT22;760;48.822;9.304;2023-09-19T18:58:40;18.60;99.90
1534;DHT22;760;48.822;9.304;2023-09-19T19:01:08;18.50;99.90
1534;DHT22;760;48.822;9.304;2023-09-19T19:03:34;18.50;99.90
1534;DHT22;760;48.822;9.304;2023-09-19T19:08:30;18.40;99.90
1534;DHT22;760;48.822;9.304;2023-09-19T19:10:57;18.40;99.90
1534;DHT22;760;48.822;9.304;2023-09-19T19:13:23;18.30;99.90
1534;DHT22;760;48.822;9.304;2023-09-19T19:15:49;18.30;99.90
1534;DHT22;760;48.822;9.304;2023-09-19T19:18:14;18.30;99.90
1534;DHT22;760;48.822;9.304;2023-09-19T19:20:40;18.20;99.90
1534;DHT22;760;48.822;9.304;2023-09-19T19:23:07;18.20;99.90
1534;DHT22;760;48.822;9.304;2023-09-19T19:25:34;18.10;99.90
1534;DHT22;760;48.822;9.304;2023-09-19T19:27:59;18.00;99.90
1534;DHT22;760;48.822;9.304;2023-09-19T19:30:25;18.00;99.90
1534;DHT22;760;48.822;9.304;2023-09-19T19:32:51;17.90;99.90
1534;DHT22;760;48.822;9.304;2023-09-19T19:35:16;17.90;99.90
1534;DHT22;760;48.822;9.304;2023-09-19T19:37:43;17.80;99.90
1534;DHT22;760;48.822;9.304;2023-09-19T19:40:09;17.80;99.90
1534;DHT22;760;48.822;9.304;2023-09-19T19:42:35;17.70;99.90
1534;DHT22;760;48.822;9.304;2023-09-19T19:45:01;17.70;99.90
1534;DHT22;760;48.822;9.304;2023-09-19T19:47:30;17.70;99.90
1534;DHT22;760;48.822;9.304;2023-09-19T19:49:55;17.70;99.90
1534;DHT22;760;48.822;9.304;2023-09-19T19:52:24;17.70;99.90
1534;DHT22;760;48.822;9.304;2023-09-19T19:54:50;17.60;99.90
1534;DHT22;760;48.822;9.304;2023-09-19T19:57:16;17.60;99.90
1534;DHT22;760;48.822;9.304;2023-09-19T19:59:43;17.50;99.90
1534;DHT22;760;48.822;9.304;2023-09-19T20:02:08;17.50;99.90
1534;DHT22;760;48.822;9.304;2023-09-19T20:04:34;17.40;99.90
1534;DHT22;760;48.822;9.304;2023-09-19T20:06:59;17.40;99.90
1534;DHT22;760;48.822;9.304;2023-09-19T20:09:25;17.30;99.90
1534;DHT22;760;48.822;9.304;2023-09-19T20:11:51;17.30;99.90
1534;DHT22;760;48.822;9.304;2023-09-19T20:14:16;17.30;99.90
1534;DHT22;760;48.822;9.304;2023-09-19T20:16:42;17.20;99.90
1534;DHT22;760;48.822;9.304;2023-09-19T20:19:09;17.20;99.90
1534;DHT22;760;48.822;9.304;2023-09-19T20:21:35;17.10;99.90
1534;DHT22;760;48.822;9.304;2023-09-19T20:24:02;17.00;99.90
1534;DHT22;760;48.822;9.304;2023-09-19T20:26:36;17.00;99.90
1534;DHT22;760;48.822;9.304;2023-09-19T20:29:03;16.90;99.90
1534;DHT22;760;48.822;9.304;2023-09-19T20:31:29;16.90;99.90
1534;DHT22;760;48.822;9.304;2023-09-19T20:33:58;16.80;99.90
1534;DHT22;760;48.822;9.304;2023-09-19T20:36:24;16.70;99.90
1534;DHT22;760;48.822;9.304;2023-09-19T20:38:50;16.70;99.90
1534;DHT22;760;48.822;9.304;2023-09-19T20:41:16;16.60;99.90
1534;DHT22;760;48.822;9.304;2023-09-19T20:43:41;16.60;99.90
1534;DHT22;760;48.822;9.304;2023-09-19T20:46:07;16.60;99.90
1534;DHT22;760;48.822;9.304;2023-09-19T20:48:33;16.50;99.90
1534;DHT22;760;48.822;9.304;2023-09-19T20:51:10;16.50;99.90
1534;DHT22;760;48.822;9.304;2023-09-19T20:53:39;16.40;99.90
1534;DHT22;760;48.822;9.304;2023-09-19T20:56:06;16.40;99.90
1534;DHT22;760;48.822;9.304;2023-09-19T20:58:35;16.30;99.90
1534;DHT22;760;48.822;9.304;2023-09-19T21:01:05;16.20;99.90
1534;DHT22;760;48.822;9.304;2023-09-19T21:03:31;16.20;99.90
1534;DHT22;760;48.822;9.304;2023-09-19T21:06:01;16.20;99.90
1534;DHT22;760;48.822;9.304;2023-09-19T21:08:31;16.10;99.90
1534;DHT22;760;48.822;9.304;2023-09-19T21:10:58;16.10;99.90
1534;DHT22;760;48.822;9.304;2023-09-19T21:13:24;16.10;99.90
1534;DHT22;760;48.822;9.304;2023-09-19T21:15:49;16.00;99.90